aviador You're here:

KXNA Decoded Metar

BENTONVILLE (NW) in AR, USA
Report Time2017-11-23 21:53:00
UTC Time2017-11-23 22:08:52
Flight Rules vfr VFR
Wind240° at 06 kt
W.Decomp.*RWY 17: 2.4 kt HW 5.5 kt RCW
RWY 16: 1.5 kt HW 5.8 kt RCW
W.Rank240° ranks 26
Current wind is below 240° avg. (7.1)
Visibility9999 m
Phenomena:N/A
Clouds:N/A
Expected CloudBase > 7,600 ft AGL from Temp-Dew spread
CeilingNone
Temp17°C (ISA +5)
Dew Point-2°C (27% RH)
AAT12.6°C
QNH1017 hPa
Density Alt1,765 ft
Elevation1,286 ft
Report Wrong Elevation
Raw Report
KXNA 232153Z 24006KT 10SM CLR 17/M02 A3002 RMK AO2 SLP168
T01671017=

Extra information for KXNA:More info

Metar Taf Metar & Taf Last 4 Metars F.Rules Stats Wind Profile Meteogram Temp Stats Airport Information Weather charts Add Link Nearby VenuesMetar ALERT Operation Metar Decoded Social comments

AIRNAV info for KXNA